createdAt,value
2023-03-23T00:00:35.986Z,0
2023-03-23T00:03:02.176Z,0
2023-03-23T00:05:28.284Z,0
2023-03-23T00:07:54.394Z,0
2023-03-23T00:10:20.530Z,0
2023-03-23T00:12:46.619Z,0
2023-03-23T00:15:12.565Z,0
2023-03-23T00:17:38.656Z,0
2023-03-23T00:20:04.769Z,0
2023-03-23T00:22:30.952Z,0
2023-03-23T00:24:57.057Z,0
2023-03-23T00:27:23.099Z,0
2023-03-23T00:29:48.230Z,0
2023-03-23T00:32:14.439Z,0
2023-03-23T00:34:40.359Z,0
2023-03-23T00:37:06.440Z,0
2023-03-23T00:39:32.573Z,0
2023-03-23T00:41:58.790Z,0
2023-03-23T00:44:24.891Z,0
2023-03-23T00:46:50.939Z,0
2023-03-23T00:49:17.010Z,0
2023-03-23T00:51:43.022Z,0
2023-03-23T00:54:09.195Z,0
2023-03-23T00:56:35.363Z,0
2023-03-23T00:59:01.351Z,0
2023-03-23T01:01:26.503Z,0
2023-03-23T01:03:52.507Z,0
2023-03-23T01:06:18.733Z,0
2023-03-23T01:08:44.874Z,0
2023-03-23T01:11:10.916Z,0
2023-03-23T01:13:37.099Z,0
2023-03-23T01:16:03.034Z,0
2023-03-23T01:18:29.084Z,0
2023-03-23T01:20:55.203Z,0
2023-03-23T01:23:21.352Z,0
2023-03-23T01:25:47.521Z,0
2023-03-23T01:28:13.471Z,0
2023-03-23T01:30:39.663Z,0
2023-03-23T01:33:04.689Z,0
2023-03-23T01:35:30.888Z,0
2023-03-23T01:37:56.890Z,0
2023-03-23T01:40:22.965Z,0
2023-03-23T01:42:49.050Z,0
2023-03-23T01:45:15.287Z,0
2023-03-23T01:47:41.381Z,0
2023-03-23T01:50:07.497Z,0
2023-03-23T01:52:33.574Z,0
2023-03-23T01:54:59.655Z,0
2023-03-23T01:57:25.668Z,0
2023-03-23T02:02:17.972Z,0
2023-03-23T02:04:42.989Z,0
2023-03-23T02:07:09.196Z,0
2023-03-23T02:09:35.306Z,0
2023-03-23T02:12:01.318Z,0
2023-03-23T02:14:27.421Z,0
2023-03-23T02:16:53.482Z,0
2023-03-23T02:19:19.670Z,0
2023-03-23T02:21:45.612Z,0
2023-03-23T02:24:11.822Z,0
2023-03-23T02:26:37.932Z,0
2023-03-23T02:29:03.895Z,0
2023-03-23T02:31:30.001Z,0
2023-03-23T02:33:56.106Z,0
2023-03-23T02:36:21.206Z,0
2023-03-23T02:38:47.384Z,0
2023-03-23T02:41:13.426Z,0
2023-03-23T02:43:39.555Z,0
2023-03-23T02:46:05.594Z,0
2023-03-23T02:48:31.765Z,0
2023-03-23T02:50:57.893Z,0
2023-03-23T02:53:24.010Z,0
2023-03-23T02:55:49.959Z,0
2023-03-23T02:58:16.153Z,0
2023-03-23T03:00:42.222Z,0
2023-03-23T03:03:08.236Z,0
2023-03-23T03:05:34.482Z,0
2023-03-23T03:07:59.442Z,0
2023-03-23T03:10:25.665Z,0
2023-03-23T03:12:51.646Z,0
2023-03-23T03:15:17.801Z,0
2023-03-23T03:17:43.827Z,0
2023-03-23T03:20:09.928Z,0
2023-03-23T03:22:35.058Z,0
2023-03-23T03:25:01.136Z,0
2023-03-23T03:27:27.330Z,0
2023-03-23T03:29:53.442Z,0
2023-03-23T03:32:19.459Z,0
2023-03-23T03:34:45.658Z,0
2023-03-23T03:37:11.625Z,0
2023-03-23T03:39:37.714Z,0
2023-03-23T03:42:03.971Z,0
2023-03-23T03:44:30.032Z,0
2023-03-23T03:46:56.007Z,0
2023-03-23T03:49:22.260Z,0
2023-03-23T03:51:48.285Z,0
2023-03-23T03:54:13.335Z,0
2023-03-23T03:56:39.390Z,0
2023-03-23T03:59:05.491Z,0
2023-03-23T04:01:31.586Z,0
2023-03-23T04:03:57.776Z,0
2023-03-23T04:06:23.838Z,0
2023-03-23T04:08:49.987Z,0
2023-03-23T04:11:15.953Z,0
2023-03-23T04:13:42.164Z,0
2023-03-23T04:16:08.181Z,0
2023-03-23T04:18:34.333Z,0
2023-03-23T04:21:00.507Z,0
2023-03-23T04:23:26.440Z,0
2023-03-23T04:25:51.610Z,0
2023-03-23T04:28:17.658Z,0
2023-03-23T04:30:43.746Z,0
2023-03-23T04:33:09.999Z,0
2023-03-23T04:35:36.049Z,0
2023-03-23T04:38:02.107Z,0
2023-03-23T04:40:28.296Z,0
2023-03-23T04:42:54.384Z,0
2023-03-23T04:45:20.327Z,0
2023-03-23T04:47:46.550Z,0
2023-03-23T04:50:12.657Z,0
2023-03-23T04:52:38.604Z,0
2023-03-23T04:55:04.768Z,0
2023-03-23T04:57:29.948Z,0
2023-03-23T04:59:56.008Z,0
2023-03-23T05:02:22.009Z,4
2023-03-23T05:04:48.264Z,4
2023-03-23T05:07:14.184Z,4
2023-03-23T05:09:40.310Z,4
2023-03-23T05:12:06.491Z,12
2023-03-23T05:14:32.564Z,16
2023-03-23T05:16:58.596Z,24
2023-03-23T05:19:24.782Z,32
2023-03-23T05:21:50.908Z,36
2023-03-23T05:24:16.860Z,52
2023-03-23T05:26:42.954Z,64
2023-03-23T05:29:08.219Z,84
2023-03-23T05:31:34.225Z,132
2023-03-23T05:34:00.372Z,192
2023-03-23T05:36:26.496Z,236
2023-03-23T05:38:52.456Z,277
2023-03-23T05:41:18.542Z,277
2023-03-23T05:43:44.693Z,244
2023-03-23T05:46:10.820Z,248
2023-03-23T05:48:37.018Z,297
2023-03-23T05:51:03.006Z,293
2023-03-23T05:53:29.136Z,293
2023-03-23T05:55:55.253Z,305
2023-03-23T05:58:21.204Z,329
2023-03-23T06:00:46.511Z,401
2023-03-23T06:03:12.498Z,477
2023-03-23T06:05:38.663Z,610
2023-03-23T06:08:04.710Z,690
2023-03-23T06:10:30.781Z,887
2023-03-23T06:12:56.845Z,1176
2023-03-23T06:15:23.126Z,1317
2023-03-23T06:17:49.209Z,1240
2023-03-23T06:20:15.226Z,1252
2023-03-23T06:22:41.419Z,1337
2023-03-23T06:25:07.484Z,1212
2023-03-23T06:27:33.546Z,1268
2023-03-23T06:29:59.477Z,1104
2023-03-23T06:32:24.682Z,1064
2023-03-23T06:34:50.908Z,1216
2023-03-23T06:37:16.929Z,1658
2023-03-23T06:39:43.082Z,1562
2023-03-23T06:42:09.110Z,1028
2023-03-23T06:44:35.210Z,807
2023-03-23T06:47:01.331Z,787
2023-03-23T06:49:27.344Z,742
2023-03-23T06:51:53.520Z,694
2023-03-23T06:54:19.619Z,686
2023-03-23T06:56:45.681Z,899
2023-03-23T06:59:11.786Z,1160
2023-03-23T07:01:37.928Z,1726
2023-03-23T07:04:02.997Z,2168
2023-03-23T07:06:29.119Z,2915
2023-03-23T07:08:55.209Z,3746
2023-03-23T07:11:21.327Z,4280
2023-03-23T07:13:47.232Z,3373
2023-03-23T07:16:13.514Z,3758
2023-03-23T07:21:05.732Z,4136
2023-03-23T07:25:57.809Z,2537
2023-03-23T07:28:23.810Z,1786
2023-03-23T07:30:50.133Z,1501
2023-03-23T07:33:16.166Z,1192
2023-03-23T07:35:41.247Z,1168
2023-03-23T07:38:07.376Z,1080
2023-03-23T07:40:33.299Z,959
2023-03-23T07:42:59.520Z,859
2023-03-23T07:45:25.692Z,967
2023-03-23T07:47:51.711Z,1208
2023-03-23T07:50:17.691Z,1614
2023-03-23T07:52:43.780Z,1939
2023-03-23T07:55:09.865Z,2060
2023-03-23T07:57:35.958Z,2068
2023-03-23T08:00:02.054Z,3108
2023-03-23T08:02:28.179Z,3955
2023-03-23T08:04:54.314Z,4256
2023-03-23T08:07:19.362Z,4626
2023-03-23T08:09:45.494Z,4879
2023-03-23T08:12:11.730Z,5979
2023-03-23T08:14:37.726Z,5786
2023-03-23T08:17:03.879Z,5834
2023-03-23T08:19:29.894Z,5605
2023-03-23T08:24:22.201Z,5822
2023-03-23T08:26:48.251Z,6613
2023-03-23T08:29:14.317Z,6979
2023-03-23T08:31:40.344Z,6469
2023-03-23T08:34:06.560Z,6915
2023-03-23T08:36:32.666Z,8035
2023-03-23T08:38:57.790Z,8665
2023-03-23T08:41:23.829Z,7830
2023-03-23T08:43:49.907Z,7184
2023-03-23T08:46:15.890Z,6762
2023-03-23T08:48:42.021Z,6754
2023-03-23T08:51:08.209Z,7091
2023-03-23T08:53:34.284Z,6666
2023-03-23T08:58:26.526Z,5874
2023-03-23T09:00:52.507Z,5232
2023-03-23T09:03:18.721Z,4413
2023-03-23T09:05:44.665Z,4425
2023-03-23T09:08:10.742Z,3971
2023-03-23T09:10:35.857Z,4184
2023-03-23T09:13:01.978Z,3630
2023-03-23T09:15:28.131Z,3895
2023-03-23T09:17:54.283Z,5300
2023-03-23T09:20:20.244Z,4553
2023-03-23T09:22:46.412Z,5063
2023-03-23T09:25:12.482Z,5654
2023-03-23T09:27:38.539Z,5120
2023-03-23T09:30:04.641Z,5533
2023-03-23T09:32:30.809Z,4670
2023-03-23T09:34:56.847Z,4943
2023-03-23T09:37:23.037Z,5397
2023-03-23T09:39:49.011Z,5513
2023-03-23T09:42:14.320Z,6742
2023-03-23T09:44:40.221Z,6156
2023-03-23T09:47:06.314Z,4023
2023-03-23T09:51:58.498Z,4276
2023-03-23T09:54:24.679Z,3786
2023-03-23T09:56:50.828Z,3212
2023-03-23T09:59:16.931Z,2421
2023-03-23T10:01:43.050Z,3826
2023-03-23T10:04:08.996Z,4228
2023-03-23T10:06:35.161Z,4593
2023-03-23T10:09:01.182Z,4180
2023-03-23T10:11:27.317Z,5188
2023-03-23T10:13:52.565Z,5421
2023-03-23T10:16:18.481Z,6645
2023-03-23T10:18:44.627Z,7300
2023-03-23T10:21:10.690Z,7248
2023-03-23T10:23:36.832Z,8613
2023-03-23T10:26:02.884Z,6666
2023-03-23T10:28:29.100Z,8256
2023-03-23T10:30:55.101Z,8047
2023-03-23T10:33:21.181Z,8167
2023-03-23T10:35:47.253Z,7918
2023-03-23T10:38:13.505Z,7533
2023-03-23T10:40:39.650Z,6894
2023-03-23T10:43:05.633Z,7412
2023-03-23T10:45:30.628Z,8726
2023-03-23T10:47:56.726Z,9902
2023-03-23T10:50:22.815Z,7866
2023-03-23T10:52:48.914Z,6995
2023-03-23T10:55:15.085Z,6629
2023-03-23T10:57:41.232Z,5734
2023-03-23T11:00:07.390Z,4280
2023-03-23T11:02:33.299Z,5746
2023-03-23T11:04:59.417Z,6047
2023-03-23T11:07:25.638Z,6533
2023-03-23T11:09:51.586Z,6694
2023-03-23T11:12:17.681Z,8268
2023-03-23T11:14:43.853Z,7922
2023-03-23T11:17:08.898Z,7641
2023-03-23T11:19:34.978Z,10083
2023-03-23T11:22:01.252Z,6682
2023-03-23T11:24:27.332Z,8376
2023-03-23T11:26:53.331Z,7995
2023-03-23T11:29:19.442Z,5389
2023-03-23T11:31:44.474Z,6617
2023-03-23T11:34:10.704Z,7143
2023-03-23T11:36:36.711Z,6645
2023-03-23T11:39:02.764Z,5304
2023-03-23T11:41:29.050Z,4730
2023-03-23T11:43:55.050Z,4236
2023-03-23T11:46:21.152Z,5686
2023-03-23T11:48:47.288Z,7344
2023-03-23T11:51:13.261Z,6493
2023-03-23T11:53:39.322Z,8376
2023-03-23T11:56:05.428Z,9677
2023-03-23T11:58:31.652Z,10934
2023-03-23T12:00:57.763Z,10111
2023-03-23T12:03:22.896Z,9388
2023-03-23T12:05:48.978Z,9272
2023-03-23T12:08:15.132Z,9930
2023-03-23T12:10:41.013Z,10890
2023-03-23T12:13:07.106Z,11838
2023-03-23T12:15:33.520Z,12408
2023-03-23T12:17:59.492Z,12810
2023-03-23T12:20:25.534Z,11749
2023-03-23T12:22:51.476Z,12155
2023-03-23T12:25:17.624Z,12018
2023-03-23T12:27:43.670Z,10529
2023-03-23T12:30:09.912Z,9982
2023-03-23T12:32:35.855Z,9589
2023-03-23T12:35:01.193Z,9742
2023-03-23T12:37:27.289Z,9380
2023-03-23T12:39:53.165Z,8685
2023-03-23T12:42:19.337Z,7445
2023-03-23T12:44:45.523Z,6509
2023-03-23T12:47:11.466Z,7553
2023-03-23T12:49:37.645Z,7838
2023-03-23T12:52:03.649Z,8248
2023-03-23T12:54:29.733Z,8549
2023-03-23T12:56:55.824Z,8890
2023-03-23T12:59:21.918Z,9709
2023-03-23T13:01:48.177Z,9862
2023-03-23T13:04:14.262Z,8814
2023-03-23T13:06:39.357Z,9276
2023-03-23T13:09:05.391Z,9368
2023-03-23T13:11:31.474Z,9336
2023-03-23T13:13:57.685Z,8995
2023-03-23T13:16:23.603Z,10095
2023-03-23T13:18:49.830Z,9191
2023-03-23T13:21:15.794Z,7682
2023-03-23T13:23:41.902Z,7396
2023-03-23T13:26:08.084Z,8457
2023-03-23T13:31:00.349Z,6063
2023-03-23T13:33:26.415Z,8617
2023-03-23T13:35:53.615Z,8051
2023-03-23T13:38:17.687Z,8396
2023-03-23T13:40:43.580Z,8356
2023-03-23T13:43:09.749Z,7794
2023-03-23T13:45:35.996Z,10713
2023-03-23T13:48:02.109Z,9099
2023-03-23T13:50:28.241Z,5513
2023-03-23T13:52:54.265Z,6300
2023-03-23T13:55:20.362Z,6694
2023-03-23T13:57:46.259Z,7043
2023-03-23T14:00:12.471Z,7742
2023-03-23T14:02:38.632Z,7328
2023-03-23T14:05:04.565Z,6216
2023-03-23T14:07:30.810Z,4846
2023-03-23T14:09:55.750Z,4260
2023-03-23T14:12:21.997Z,4200
2023-03-23T14:14:48.059Z,4320
2023-03-23T14:17:14.091Z,4140
2023-03-23T14:19:40.273Z,4148
2023-03-23T14:22:06.352Z,3855
2023-03-23T14:24:32.450Z,4369
2023-03-23T14:29:24.508Z,3899
2023-03-23T14:31:50.597Z,3742
2023-03-23T14:34:16.802Z,4240
2023-03-23T14:36:42.960Z,4698
2023-03-23T14:39:09.021Z,5393
2023-03-23T14:41:34.103Z,5280
2023-03-23T14:44:00.151Z,4626
2023-03-23T14:46:26.359Z,4858
2023-03-23T14:48:52.379Z,4826
2023-03-23T14:51:18.440Z,4240
2023-03-23T14:53:44.619Z,4907
2023-03-23T14:56:10.541Z,4264
2023-03-23T14:58:36.656Z,4200
2023-03-23T15:01:02.964Z,3569
2023-03-23T15:03:28.990Z,3549
2023-03-23T15:05:55.055Z,3385
2023-03-23T15:08:21.021Z,2823
2023-03-23T15:10:47.270Z,2758
2023-03-23T15:13:12.336Z,2847
2023-03-23T15:15:38.334Z,2537
2023-03-23T15:18:04.437Z,2810
2023-03-23T15:20:30.764Z,2493
2023-03-23T15:22:56.740Z,2417
2023-03-23T15:25:22.724Z,2184
2023-03-23T15:27:49.007Z,2039
2023-03-23T15:30:15.018Z,2228
2023-03-23T15:32:41.006Z,2052
2023-03-23T15:35:07.106Z,1903
2023-03-23T15:37:33.369Z,2072
2023-03-23T15:39:59.316Z,1758
2023-03-23T15:42:25.383Z,1967
2023-03-23T15:44:50.508Z,1718
2023-03-23T15:47:16.606Z,1417
2023-03-23T15:49:42.841Z,1353
2023-03-23T15:52:08.971Z,1256
2023-03-23T15:57:01.139Z,1060
2023-03-23T15:59:27.200Z,947
2023-03-23T16:01:53.384Z,907
2023-03-23T16:04:32.656Z,999
2023-03-23T16:06:45.535Z,1120
2023-03-23T16:09:11.604Z,1349
2023-03-23T16:11:37.700Z,1252
2023-03-23T16:14:03.807Z,935
2023-03-23T16:16:28.776Z,746
2023-03-23T16:21:21.023Z,590
2023-03-23T16:23:47.147Z,546
2023-03-23T16:26:13.309Z,485
2023-03-23T16:28:39.315Z,449
2023-03-23T16:31:05.340Z,437
2023-03-23T16:33:31.421Z,389
2023-03-23T16:35:57.670Z,389
2023-03-23T16:38:23.753Z,361
2023-03-23T16:40:49.818Z,321
2023-03-23T16:43:15.807Z,313
2023-03-23T16:45:42.035Z,285
2023-03-23T16:48:07.165Z,273
2023-03-23T16:50:33.158Z,257
2023-03-23T16:52:59.292Z,236
2023-03-23T16:55:25.298Z,220
2023-03-23T16:57:51.377Z,212
2023-03-23T17:00:17.696Z,204
2023-03-23T17:02:43.660Z,204
2023-03-23T17:05:09.801Z,200
2023-03-23T17:07:35.932Z,212
2023-03-23T17:10:01.972Z,216
2023-03-23T17:12:28.019Z,236
2023-03-23T17:14:54.240Z,252
2023-03-23T17:17:20.280Z,232
2023-03-23T17:19:45.396Z,196
2023-03-23T17:22:11.474Z,160
2023-03-23T17:24:37.431Z,152
2023-03-23T17:27:03.717Z,124
2023-03-23T17:29:29.629Z,104
2023-03-23T17:31:55.911Z,92
2023-03-23T17:34:21.992Z,68
2023-03-23T17:36:48.103Z,44
2023-03-23T17:39:14.132Z,44
2023-03-23T17:41:40.209Z,36
2023-03-23T17:44:06.350Z,24
2023-03-23T17:46:32.358Z,20
2023-03-23T17:48:58.394Z,12
2023-03-23T17:51:23.509Z,12
2023-03-23T17:53:49.729Z,8
2023-03-23T17:56:15.858Z,4
2023-03-23T17:58:41.922Z,4
2023-03-23T18:01:08.024Z,0
2023-03-23T18:03:34.179Z,0
2023-03-23T18:06:00.105Z,0
2023-03-23T18:08:26.255Z,0
2023-03-23T18:10:52.358Z,0
2023-03-23T18:13:18.547Z,0
2023-03-23T18:15:44.613Z,0
2023-03-23T18:18:10.730Z,0
2023-03-23T18:20:36.720Z,0
2023-03-23T18:23:01.771Z,0
2023-03-23T18:27:54.110Z,0
2023-03-23T18:30:20.266Z,0
2023-03-23T18:32:46.309Z,0
2023-03-23T18:35:12.305Z,0
2023-03-23T18:37:38.511Z,0
2023-03-23T18:40:04.436Z,0
2023-03-23T18:42:30.645Z,0
2023-03-23T18:44:56.802Z,0
2023-03-23T18:47:22.865Z,0
2023-03-23T18:49:48.954Z,0
2023-03-23T18:52:15.111Z,0
2023-03-23T18:54:40.249Z,0
2023-03-23T18:57:06.292Z,0
2023-03-23T18:59:32.363Z,0
2023-03-23T19:01:58.473Z,0
2023-03-23T19:04:24.610Z,0
2023-03-23T19:06:50.703Z,0
2023-03-23T19:09:16.752Z,0
2023-03-23T19:11:42.853Z,0
2023-03-23T19:14:08.963Z,0
2023-03-23T19:16:35.160Z,0
2023-03-23T19:19:01.195Z,0
2023-03-23T19:21:27.262Z,0
2023-03-23T19:23:53.370Z,0
2023-03-23T19:26:18.481Z,0
2023-03-23T19:28:44.532Z,0
2023-03-23T19:31:10.616Z,0
2023-03-23T19:33:36.759Z,0
2023-03-23T19:36:02.780Z,0
2023-03-23T19:38:28.954Z,0
2023-03-23T19:40:54.979Z,0
2023-03-23T19:43:21.033Z,0
2023-03-23T19:45:46.159Z,0
2023-03-23T19:48:12.289Z,0
2023-03-23T19:50:38.370Z,0
2023-03-23T19:53:04.466Z,0
2023-03-23T19:55:30.601Z,0
2023-03-23T19:57:56.715Z,0
2023-03-23T20:00:22.799Z,0
2023-03-23T20:02:48.865Z,0
2023-03-23T20:05:14.879Z,0
2023-03-23T20:07:41.043Z,0
2023-03-23T20:10:07.101Z,0
2023-03-23T20:12:33.223Z,0
2023-03-23T20:14:59.343Z,0
2023-03-23T20:17:24.474Z,0
2023-03-23T20:19:50.524Z,0
2023-03-23T20:22:16.636Z,0
2023-03-23T20:24:42.630Z,0
2023-03-23T20:27:08.821Z,0
2023-03-23T20:29:34.975Z,0
2023-03-23T20:32:00.868Z,0
2023-03-23T20:34:27.144Z,0
2023-03-23T20:36:53.270Z,0
2023-03-23T20:39:19.346Z,0
2023-03-23T20:41:45.429Z,0
2023-03-23T20:44:11.567Z,0
2023-03-23T20:46:37.605Z,0
2023-03-23T20:49:02.732Z,0
2023-03-23T20:51:28.808Z,0
2023-03-23T20:53:54.897Z,0
2023-03-23T20:56:20.838Z,0
2023-03-23T20:58:47.042Z,0
2023-03-23T21:01:13.157Z,0
2023-03-23T21:03:39.296Z,0
2023-03-23T21:06:05.365Z,0
2023-03-23T21:08:31.445Z,0
2023-03-23T21:10:57.581Z,0
2023-03-23T21:13:23.762Z,0
2023-03-23T21:15:49.795Z,0
2023-03-23T21:18:15.865Z,0
2023-03-23T21:20:40.955Z,0
2023-03-23T21:23:06.944Z,0
2023-03-23T21:25:33.155Z,0
2023-03-23T21:27:59.186Z,0
2023-03-23T21:30:25.251Z,0
2023-03-23T21:32:51.446Z,0
2023-03-23T21:35:17.490Z,0
2023-03-23T21:37:43.621Z,0
2023-03-23T21:40:09.684Z,0
2023-03-23T21:42:35.833Z,0
2023-03-23T21:45:01.917Z,0
2023-03-23T21:47:27.851Z,0
2023-03-23T21:49:53.926Z,0
2023-03-23T21:52:19.202Z,0
2023-03-23T21:54:45.247Z,0
2023-03-23T21:57:11.372Z,0
2023-03-23T21:59:37.335Z,0
2023-03-23T22:02:03.593Z,0
2023-03-23T22:04:29.666Z,0
2023-03-23T22:06:55.775Z,0
2023-03-23T22:09:21.787Z,0
2023-03-23T22:11:47.789Z,0
2023-03-23T22:14:13.970Z,0
2023-03-23T22:16:40.072Z,0
2023-03-23T22:19:06.074Z,0
2023-03-23T22:21:32.180Z,0
2023-03-23T22:23:57.464Z,0
2023-03-23T22:26:23.531Z,0
2023-03-23T22:28:49.573Z,0
2023-03-23T22:31:15.571Z,0
2023-03-23T22:33:41.779Z,0
2023-03-23T22:36:07.785Z,0
2023-03-23T22:38:33.977Z,0
2023-03-23T22:40:59.971Z,0
2023-03-23T22:43:26.076Z,0
2023-03-23T22:45:52.295Z,0
2023-03-23T22:48:18.378Z,0
2023-03-23T22:50:44.476Z,0
2023-03-23T22:53:10.450Z,0
2023-03-23T22:55:35.636Z,0
2023-03-23T22:58:01.788Z,0
2023-03-23T23:00:27.859Z,0
2023-03-23T23:02:53.917Z,0
2023-03-23T23:05:19.951Z,0
2023-03-23T23:07:46.069Z,0
2023-03-23T23:10:12.131Z,0
2023-03-23T23:12:38.337Z,0
2023-03-23T23:15:04.464Z,0
2023-03-23T23:17:30.530Z,0
2023-03-23T23:19:56.582Z,0
2023-03-23T23:22:22.741Z,0
2023-03-23T23:24:48.868Z,0
2023-03-23T23:29:39.936Z,0
2023-03-23T23:32:06.020Z,0
2023-03-23T23:34:32.248Z,0
2023-03-23T23:36:58.333Z,0
2023-03-23T23:39:24.428Z,0
2023-03-23T23:41:50.486Z,0
2023-03-23T23:44:16.531Z,0
2023-03-23T23:46:42.675Z,0
2023-03-23T23:49:08.748Z,0
2023-03-23T23:51:34.827Z,0
2023-03-23T23:54:01.026Z,0
2023-03-23T23:56:27.051Z,0
2023-03-23T23:58:52.171Z,0
